Time;durP1;ratioP1;P1;durP2;ratioP2;P2;SDS_P1;SDS_P2;PMS_P1;PMS_P2;Temp;Humidity;BMP_temperature;BMP_pressure;BME280_temperature;BME280_humidity;BME280_pressure;Samples;Min_cycle;Max_cycle;Signal;HPM_P1;HPM_P2
2022/01/09 00:01:17;;;;;;;0.00;0.00;;;3.40;99.90;;;;;;5081004;28;20074;-70
2022/01/09 00:03:43;;;;;;;0.00;0.00;;;3.40;99.90;;;;;;5081173;28;20056;-71
2022/01/09 00:06:09;;;;;;;0.00;0.00;;;3.50;99.90;;;;;;5081092;28;20533;-70
2022/01/09 00:08:34;;;;;;;0.00;0.00;;;3.40;99.90;;;;;;5080371;28;20079;-71
2022/01/09 00:11:00;;;;;;;0.00;0.00;;;3.50;99.90;;;;;;5062615;28;20109;-71
2022/01/09 00:13:25;;;;;;;0.00;0.00;;;3.50;99.90;;;;;;5080399;28;20074;-70
2022/01/09 00:15:51;;;;;;;0.00;0.00;;;3.50;99.90;;;;;;5080579;28;20082;-70
2022/01/09 00:18:17;;;;;;;0.00;0.00;;;3.50;99.90;;;;;;5080502;28;20071;-70
2022/01/09 00:20:42;;;;;;;0.00;0.00;;;3.50;99.90;;;;;;5080839;28;20085;-70
2022/01/09 00:23:08;;;;;;;0.00;0.00;;;3.50;99.90;;;;;;5080496;28;20047;-70
2022/01/09 00:25:34;;;;;;;0.00;0.00;;;3.50;99.90;;;;;;5080898;28;20050;-71
2022/01/09 00:27:59;;;;;;;0.00;0.00;;;3.50;99.90;;;;;;5081859;28;20036;-70
2022/01/09 00:30:25;;;;;;;0.00;0.00;;;2.50;99.90;;;;;;5089462;28;20603;-70
2022/01/09 00:32:52;;;;;;;0.10;0.10;;;3.50;99.90;;;;;;5080637;28;20055;-70
2022/01/09 00:35:18;;;;;;;0.32;0.32;;;3.50;99.90;;;;;;5080648;28;20047;-70
2022/01/09 00:37:44;;;;;;;0.00;0.00;;;3.50;99.90;;;;;;5079557;28;20096;-70
2022/01/09 00:40:11;;;;;;;0.00;0.00;;;3.50;99.90;;;;;;5080290;28;20089;-71
2022/01/09 00:42:38;;;;;;;0.00;0.00;;;3.50;99.90;;;;;;5080002;28;20120;-71
2022/01/09 00:45:05;;;;;;;0.10;0.10;;;3.50;99.90;;;;;;5062266;28;20427;-70
2022/01/09 00:47:30;;;;;;;0.00;0.00;;;3.50;99.90;;;;;;5079862;28;20040;-70
2022/01/09 00:49:56;;;;;;;0.00;0.00;;;3.40;99.90;;;;;;5080041;28;20062;-72
2022/01/09 00:52:23;;;;;;;0.03;0.03;;;3.50;99.90;;;;;;5080211;28;20139;-70
2022/01/09 00:54:49;;;;;;;0.20;0.20;;;3.50;99.90;;;;;;5080308;28;20143;-70
2022/01/09 00:57:14;;;;;;;0.00;0.00;;;3.50;99.90;;;;;;5079184;28;20071;-70
2022/01/09 00:59:40;;;;;;;0.22;0.22;;;3.50;99.90;;;;;;5080613;28;20495;-70
2022/01/09 01:02:05;;;;;;;0.00;0.00;;;3.50;99.90;;;;;;5080242;28;20040;-71
2022/01/09 01:04:31;;;;;;;0.00;0.00;;;3.50;99.90;;;;;;5080829;28;20478;-71
2022/01/09 01:06:57;;;;;;;0.00;0.00;;;3.50;99.90;;;;;;5079477;28;20123;-70
2022/01/09 01:09:24;;;;;;;0.00;0.00;;;3.50;99.90;;;;;;5079965;28;20044;-70
2022/01/09 01:11:50;;;;;;;0.00;0.00;;;3.50;99.90;;;;;;5061666;28;20406;-69
2022/01/09 01:14:16;;;;;;;0.00;0.00;;;3.50;99.90;;;;;;5079942;28;20036;-70
2022/01/09 01:16:42;;;;;;;1.30;1.17;;;3.50;99.90;;;;;;5079967;28;20435;-70
2022/01/09 01:19:10;;;;;;;0.00;0.00;;;3.50;99.90;;;;;;5080194;28;20052;-70
2022/01/09 01:21:36;;;;;;;0.00;0.00;;;3.50;99.90;;;;;;5080292;28;20036;-70
2022/01/09 01:24:01;;;;;;;0.00;0.00;;;3.50;99.90;;;;;;5079635;28;20054;-71
2022/01/09 01:26:27;;;;;;;0.00;0.00;;;4.00;99.90;;;;;;5079789;28;20039;-64
2022/01/09 01:28:53;;;;;;;0.00;0.00;;;3.50;99.90;;;;;;5088696;28;20052;-70
2022/01/09 01:31:18;;;;;;;0.00;0.00;;;3.50;99.90;;;;;;5081736;28;20530;-63
2022/01/09 01:33:44;;;;;;;0.00;0.00;;;3.50;99.90;;;;;;5079026;28;20048;-71
2022/01/09 01:36:09;;;;;;;0.00;0.00;;;3.50;99.90;;;;;;5079932;28;20491;-70
2022/01/09 01:38:35;;;;;;;0.00;0.00;;;3.50;99.90;;;;;;5080057;28;20040;-71
2022/01/09 01:41:01;;;;;;;0.00;0.00;;;3.50;99.90;;;;;;5080170;28;20511;-70
2022/01/09 01:43:27;;;;;;;0.00;0.00;;;3.50;99.90;;;;;;5060732;28;20505;-70
2022/01/09 01:45:52;;;;;;;0.00;0.00;;;3.50;99.90;;;;;;5061812;28;20056;-71
2022/01/09 01:48:18;;;;;;;0.00;0.00;;;3.50;99.90;;;;;;5079684;28;20048;-64
2022/01/09 01:50:46;;;;;;;0.00;0.00;;;3.50;99.90;;;;;;5079453;28;20044;-70
2022/01/09 01:53:16;;;;;;;0.00;0.00;;;3.50;99.90;;;;;;5062930;28;20750;-70
2022/01/09 01:55:44;;;;;;;0.00;0.00;;;3.40;99.90;;;;;;5083318;28;20124;-70
2022/01/09 01:58:11;;;;;;;0.00;0.00;;;3.50;99.90;;;;;;5082772;28;20107;-71
2022/01/09 02:00:38;;;;;;;0.00;0.00;;;4.10;99.90;;;;;;5083039;28;20371;-70
2022/01/09 02:03:04;;;;;;;0.00;0.00;;;3.40;99.90;;;;;;5083157;28;20059;-70
2022/01/09 02:05:30;;;;;;;0.00;0.00;;;3.40;99.90;;;;;;5083831;28;20047;-69
2022/01/09 02:07:58;;;;;;;0.00;0.00;;;3.50;99.90;;;;;;5087000;22;20051;-68
2022/01/09 02:10:23;;;;;;;0.00;0.00;;;3.40;99.90;;;;;;5034777;28;20056;-67
2022/01/09 02:12:52;;;;;;;0.00;0.00;;;3.40;99.90;;;;;;5064338;28;20043;-67
2022/01/09 02:15:33;;;;;;;0.00;0.00;;;3.50;99.90;;;;;;5064738;28;20717;-67
2022/01/09 02:18:00;;;;;;;0.00;0.00;;;3.50;99.90;;;;;;5064502;28;20421;-67
2022/01/09 02:20:26;;;;;;;0.00;0.00;;;3.50;99.90;;;;;;5083131;28;20040;-67
2022/01/09 02:22:52;;;;;;;0.00;0.00;;;3.40;99.90;;;;;;5064696;28;20614;-66
2022/01/09 02:25:18;;;;;;;0.00;0.00;;;3.40;99.90;;;;;;5064667;28;20482;-67
2022/01/09 02:27:43;;;;;;;0.00;0.00;;;3.40;99.90;;;;;;5071487;28;20069;-67
2022/01/09 02:30:10;;;;;;;0.00;0.00;;;3.40;99.90;;;;;;5051214;28;20049;-67
2022/01/09 02:32:36;;;;;;;0.00;0.00;;;3.40;99.90;;;;;;5042335;28;20041;-67
2022/01/09 02:35:01;;;;;;;0.00;0.00;;;3.40;99.90;;;;;;5042854;28;20049;-67
2022/01/09 02:37:27;;;;;;;0.10;0.10;;;3.40;99.90;;;;;;5041704;28;20041;-67
2022/01/09 02:39:53;;;;;;;0.00;0.00;;;3.40;99.90;;;;;;5024125;28;20103;-66
2022/01/09 02:42:19;;;;;;;0.00;0.00;;;3.40;99.90;;;;;;5041847;28;20079;-67
2022/01/09 02:44:44;;;;;;;0.00;0.00;;;3.40;99.90;;;;;;5041883;28;20495;-67
2022/01/09 02:47:10;;;;;;;0.00;0.00;;;3.40;99.90;;;;;;5041615;28;20053;-67
2022/01/09 02:49:36;;;;;;;0.00;0.00;;;3.40;99.90;;;;;;5042238;28;20684;-66
2022/01/09 02:52:10;;;;;;;0.00;0.00;;;3.40;99.90;;;;;;5024518;28;20045;-66
2022/01/09 02:57:20;;;;;;;0.00;0.00;;;3.40;99.90;;;;;;5025795;28;20051;-66
2022/01/09 02:59:46;;;;;;;0.00;0.00;;;3.40;99.90;;;;;;5041816;28;20450;-66
2022/01/09 03:02:11;;;;;;;0.00;0.00;;;3.30;99.90;;;;;;5041284;28;20064;-66
2022/01/09 03:04:37;;;;;;;0.00;0.00;;;3.40;99.90;;;;;;5041843;28;20393;-66
2022/01/09 03:07:03;;;;;;;0.00;0.00;;;3.40;99.90;;;;;;5023530;28;20052;-67
2022/01/09 03:09:29;;;;;;;0.00;0.00;;;3.40;99.90;;;;;;5042005;28;20063;-66
2022/01/09 03:11:54;;;;;;;0.00;0.00;;;3.50;99.90;;;;;;5022201;28;20120;-65
2022/01/09 03:14:20;;;;;;;0.00;0.00;;;3.50;99.90;;;;;;5041475;28;20044;-66
2022/01/09 03:16:45;;;;;;;0.65;0.65;;;3.40;99.90;;;;;;5041640;28;20041;-69
2022/01/09 03:19:11;;;;;;;0.00;0.00;;;3.50;99.90;;;;;;5023739;28;20099;-68
2022/01/09 03:21:37;;;;;;;0.00;0.00;;;3.60;99.90;;;;;;5040720;28;20749;-68
2022/01/09 03:24:03;;;;;;;0.00;0.00;;;3.50;99.90;;;;;;5041701;28;20048;-69
2022/01/09 03:26:28;;;;;;;0.03;0.03;;;3.50;99.90;;;;;;5022948;28;20041;-69
2022/01/09 03:28:54;;;;;;;0.00;0.00;;;3.50;99.90;;;;;;5029631;28;20471;-68
2022/01/09 03:31:19;;;;;;;0.00;0.00;;;3.50;99.90;;;;;;5041089;28;20045;-68
2022/01/09 03:33:45;;;;;;;0.00;0.00;;;3.50;99.90;;;;;;5043230;28;20076;-68
2022/01/09 03:36:11;;;;;;;0.00;0.00;;;3.60;99.90;;;;;;5061096;28;20045;-68
2022/01/09 03:38:36;;;;;;;0.63;0.63;;;3.60;99.90;;;;;;5061200;28;20040;-69
2022/01/09 03:41:02;;;;;;;0.00;0.00;;;3.60;99.90;;;;;;5060570;28;20051;-68
2022/01/09 03:43:28;;;;;;;0.00;0.00;;;3.60;99.90;;;;;;5042595;28;20510;-68
2022/01/09 03:45:53;;;;;;;0.00;0.00;;;3.70;99.90;;;;;;5060897;28;20037;-68
2022/01/09 03:48:19;;;;;;;0.00;0.00;;;5.20;99.90;;;;;;5060684;28;20063;-68
2022/01/09 03:50:50;;;;;;;0.00;0.00;;;3.60;99.90;;;;;;5060531;28;20540;-67
2022/01/09 03:53:16;;;;;;;0.00;0.00;;;3.60;99.90;;;;;;5060786;28;20055;-68
2022/01/09 03:55:41;;;;;;;0.00;0.00;;;3.60;99.90;;;;;;5043205;28;20041;-68
2022/01/09 03:58:07;;;;;;;0.00;0.00;;;3.60;99.90;;;;;;5059407;28;20044;-68
2022/01/09 04:00:33;;;;;;;0.00;0.00;;;3.70;99.90;;;;;;5043106;28;20179;-68
2022/01/09 04:02:58;;;;;;;0.00;0.00;;;3.70;99.90;;;;;;5043500;28;20501;-68
2022/01/09 04:05:24;;;;;;;0.00;0.00;;;3.70;99.90;;;;;;5060524;28;20045;-68
2022/01/09 04:07:51;;;;;;;0.00;0.00;;;3.70;99.90;;;;;;5059783;28;20579;-70
2022/01/09 04:10:19;;;;;;;0.00;0.00;;;3.70;99.90;;;;;;5060707;28;20063;-68
2022/01/09 04:12:50;;;;;;;0.00;0.00;;;3.80;99.90;;;;;;5041908;28;20083;-68
2022/01/09 04:15:16;;;;;;;0.00;0.00;;;3.80;99.90;;;;;;5059433;28;20036;-68
2022/01/09 04:20:11;;;;;;;0.00;0.00;;;4.20;99.90;;;;;;5060369;28;20125;-67
2022/01/09 04:22:37;;;;;;;0.00;0.00;;;4.60;99.90;;;;;;5042483;28;20442;-66
2022/01/09 04:25:04;;;;;;;0.00;0.00;;;4.10;99.90;;;;;;5041775;28;20387;-66
2022/01/09 04:27:31;;;;;;;0.00;0.00;;;4.10;99.90;;;;;;5057752;28;20121;-66
2022/01/09 04:29:57;;;;;;;0.00;0.00;;;4.20;99.90;;;;;;5042301;28;20430;-65
2022/01/09 04:32:22;;;;;;;0.00;0.00;;;4.70;99.90;;;;;;5060099;28;20059;-66
2022/01/09 04:34:48;;;;;;;0.00;0.00;;;5.10;99.90;;;;;;5041271;28;20131;-66
2022/01/09 04:37:14;;;;;;;0.00;0.00;;;4.30;99.90;;;;;;5060215;28;20131;-66
2022/01/09 04:39:40;;;;;;;0.00;0.00;;;4.60;99.90;;;;;;5060143;28;20072;-66
2022/01/09 04:42:06;;;;;;;0.00;0.00;;;4.30;99.90;;;;;;5059121;28;20052;-66
2022/01/09 04:44:32;;;;;;;0.00;0.00;;;4.40;99.90;;;;;;5059740;28;20053;-66
2022/01/09 04:47:03;;;;;;;0.00;0.00;;;4.40;99.90;;;;;;5041987;28;20056;-66
2022/01/09 04:49:36;;;;;;;0.00;0.00;;;4.50;99.90;;;;;;5042319;28;20049;-66
2022/01/09 04:52:04;;;;;;;0.00;0.00;;;4.50;99.90;;;;;;5059531;28;20045;-66
2022/01/09 04:54:30;;;;;;;0.00;0.00;;;4.50;99.90;;;;;;5060300;28;20080;-68
2022/01/09 04:56:55;;;;;;;0.00;0.00;;;4.50;99.90;;;;;;5058968;28;20499;-68
2022/01/09 04:59:21;;;;;;;0.00;0.00;;;4.50;99.90;;;;;;5059705;28;20052;-69
2022/01/09 05:01:47;;;;;;;0.00;0.00;;;5.60;99.90;;;;;;5058925;28;20044;-68
2022/01/09 05:04:12;;;;;;;0.00;0.00;;;4.60;99.90;;;;;;5042153;28;20098;-69
2022/01/09 05:06:38;;;;;;;0.00;0.00;;;4.50;99.90;;;;;;5059586;28;20570;-69
2022/01/09 05:09:03;;;;;;;0.00;0.00;;;4.60;99.90;;;;;;5059275;28;20605;-66
2022/01/09 05:11:29;;;;;;;0.00;0.00;;;4.70;99.90;;;;;;5058988;28;20049;-66
2022/01/09 05:13:55;;;;;;;0.00;0.00;;;4.70;99.90;;;;;;5041662;28;20072;-66
2022/01/09 05:16:21;;;;;;;0.00;0.00;;;4.80;99.90;;;;;;5042093;28;20044;-66
2022/01/09 05:18:55;;;;;;;0.00;0.00;;;4.80;99.90;;;;;;5041574;28;20060;-66
2022/01/09 05:21:21;;;;;;;0.00;0.00;;;4.90;99.90;;;;;;5059781;28;20051;-66
2022/01/09 05:23:47;;;;;;;0.00;0.00;;;4.90;99.90;;;;;;5059223;28;20049;-66
2022/01/09 05:26:13;;;;;;;0.00;0.00;;;5.00;99.90;;;;;;5059384;28;20098;-66
2022/01/09 05:28:38;;;;;;;0.00;0.00;;;5.10;99.90;;;;;;5056610;28;20044;-66
2022/01/09 05:31:04;;;;;;;0.00;0.00;;;6.50;99.90;;;;;;5046849;28;20131;-66
2022/01/09 05:33:30;;;;;;;0.00;0.00;;;5.10;99.90;;;;;;5043938;28;20071;-66
2022/01/09 05:35:55;;;;;;;0.00;0.00;;;5.10;99.90;;;;;;5025333;28;20100;-66
2022/01/09 05:38:21;;;;;;;0.00;0.00;;;5.40;99.90;;;;;;5042587;28;20744;-66
2022/01/09 05:40:47;;;;;;;0.00;0.00;;;5.10;99.90;;;;;;5043388;28;20048;-66
2022/01/09 05:43:14;;;;;;;0.00;0.00;;;5.20;99.90;;;;;;5042289;28;20045;-66
2022/01/09 05:45:39;;;;;;;0.00;0.00;;;5.20;99.90;;;;;;5042220;28;20110;-66
2022/01/09 05:48:06;;;;;;;0.00;0.00;;;5.60;99.90;;;;;;5024758;28;20049;-66
2022/01/09 05:50:32;;;;;;;0.00;0.00;;;5.20;99.90;;;;;;5043503;28;20056;-66
2022/01/09 05:52:58;;;;;;;0.00;0.00;;;5.20;99.90;;;;;;5025880;28;20041;-66
2022/01/09 05:55:24;;;;;;;0.10;0.10;;;5.20;99.90;;;;;;5025284;28;20065;-66
2022/01/09 05:57:49;;;;;;;0.00;0.00;;;6.70;99.90;;;;;;5041633;28;20544;-66
2022/01/09 06:00:16;;;;;;;0.00;0.00;;;5.20;99.90;;;;;;5043133;28;20044;-66
2022/01/09 06:02:42;;;;;;;0.00;0.00;;;5.30;99.90;;;;;;5042739;28;20628;-67
2022/01/09 06:05:08;;;;;;;0.00;0.00;;;5.20;99.90;;;;;;5042855;28;20131;-66
2022/01/09 06:07:38;;;;;;;0.00;0.00;;;5.20;99.90;;;;;;5024912;28;20057;-66
2022/01/09 06:10:04;;;;;;;0.00;0.00;;;5.30;99.90;;;;;;5041446;28;20094;-67
2022/01/09 06:12:29;;;;;;;0.00;0.00;;;5.30;99.90;;;;;;5042263;28;20057;-68
2022/01/09 06:14:55;;;;;;;0.00;0.00;;;5.20;99.90;;;;;;5042112;28;20728;-66
2022/01/09 06:17:21;;;;;;;0.00;0.00;;;5.30;99.90;;;;;;5042708;28;20182;-66
2022/01/09 06:19:46;;;;;;;0.00;0.00;;;5.30;99.90;;;;;;5042521;28;20045;-69
2022/01/09 06:22:17;;;;;;;0.00;0.00;;;5.20;99.90;;;;;;5042648;28;20084;-68
2022/01/09 06:24:47;;;;;;;0.00;0.00;;;5.20;99.90;;;;;;5041661;28;20099;-69
2022/01/09 06:27:13;;;;;;;0.00;0.00;;;5.20;99.90;;;;;;5042299;28;20060;-68
2022/01/09 06:29:39;;;;;;;0.00;0.00;;;5.30;99.90;;;;;;5053188;28;20123;-65
2022/01/09 06:32:06;;;;;;;0.00;0.00;;;5.20;99.90;;;;;;5041443;28;20174;-66
2022/01/09 06:34:31;;;;;;;0.00;0.00;;;5.20;99.90;;;;;;5042962;28;20029;-66
2022/01/09 06:36:57;;;;;;;0.00;0.00;;;5.20;99.90;;;;;;5024410;28;20732;-66
2022/01/09 06:39:23;;;;;;;0.00;0.00;;;5.20;99.90;;;;;;5041731;28;20033;-66
2022/01/09 06:41:49;;;;;;;0.00;0.00;;;5.20;99.90;;;;;;5040528;28;20053;-66
2022/01/09 06:44:14;;;;;;;0.00;0.00;;;5.70;99.90;;;;;;5024483;28;20047;-66
2022/01/09 06:46:40;;;;;;;0.08;0.08;;;5.20;99.90;;;;;;5024165;28;20045;-69
2022/01/09 06:49:06;;;;;;;0.00;0.00;;;5.20;99.90;;;;;;5024015;28;20467;-66
2022/01/09 06:51:31;;;;;;;0.00;0.00;;;6.40;99.90;;;;;;5023777;28;20111;-68
2022/01/09 06:53:57;;;;;;;0.00;0.00;;;5.20;99.90;;;;;;5041916;28;20399;-66
2022/01/09 06:56:22;;;;;;;0.00;0.00;;;5.10;99.90;;;;;;5022981;28;20154;-66
2022/01/09 06:58:48;;;;;;;0.00;0.00;;;5.20;99.90;;;;;;5024181;28;20506;-66
2022/01/09 07:01:14;;;;;;;0.00;0.00;;;5.20;99.90;;;;;;5041289;28;20048;-66
2022/01/09 07:03:39;;;;;;;0.00;0.00;;;6.00;99.90;;;;;;5024228;28;20057;-66
2022/01/09 07:06:06;;;;;;;0.00;0.00;;;5.20;99.90;;;;;;5041632;28;20511;-67
2022/01/09 07:08:35;;;;;;;0.00;0.00;;;6.70;99.90;;;;;;5041787;28;20051;-66
2022/01/09 07:11:03;;;;;;;0.00;0.00;;;5.20;99.90;;;;;;5022483;28;20118;-66
2022/01/09 07:13:29;;;;;;;0.00;0.00;;;5.20;99.90;;;;;;5041661;28;20600;-66
2022/01/09 07:15:55;;;;;;;0.00;0.00;;;5.70;99.90;;;;;;5041496;28;20048;-66
2022/01/09 07:18:20;;;;;;;0.00;0.00;;;5.10;99.90;;;;;;5024082;28;20049;-66
2022/01/09 07:20:46;;;;;;;0.00;0.00;;;5.10;99.90;;;;;;5022859;28;20044;-67
2022/01/09 07:23:11;;;;;;;0.00;0.00;;;5.10;99.90;;;;;;5041540;28;20051;-66
2022/01/09 07:25:37;;;;;;;0.00;0.00;;;5.20;99.90;;;;;;5023818;28;20049;-65
2022/01/09 07:28:03;;;;;;;0.00;0.00;;;5.20;99.90;;;;;;5042358;28;20037;-67
2022/01/09 07:30:30;;;;;;;0.00;0.00;;;5.20;99.90;;;;;;5015041;28;20056;-69
2022/01/09 07:32:56;;;;;;;0.00;0.00;;;5.20;99.90;;;;;;5023118;28;20123;-66
2022/01/09 07:35:22;;;;;;;0.00;0.00;;;5.10;99.90;;;;;;5041057;28;20044;-66
2022/01/09 07:37:48;;;;;;;0.00;0.00;;;5.10;99.90;;;;;;5040391;28;20052;-66
2022/01/09 07:40:14;;;;;;;0.00;0.00;;;5.10;99.90;;;;;;5039589;28;20045;-67
2022/01/09 07:42:40;;;;;;;0.00;0.00;;;5.20;99.90;;;;;;5022636;28;20140;-67
2022/01/09 07:45:06;;;;;;;0.00;0.00;;;5.10;99.90;;;;;;5041053;28;20052;-67
2022/01/09 07:47:36;;;;;;;0.00;0.00;;;5.10;99.90;;;;;;5040462;28;20376;-67
2022/01/09 07:50:03;;;;;;;0.00;0.00;;;5.10;99.90;;;;;;5040389;28;20044;-67
2022/01/09 07:52:29;;;;;;;0.00;0.00;;;5.00;99.90;;;;;;5041049;28;20470;-68
2022/01/09 07:54:55;;;;;;;1.00;0.35;;;5.00;99.90;;;;;;5040773;28;20041;-68
2022/01/09 07:57:21;;;;;;;0.00;0.00;;;5.00;99.90;;;;;;5021044;28;20060;-68
2022/01/09 07:59:47;;;;;;;0.00;0.00;;;5.00;99.90;;;;;;5040260;28;20542;-68
2022/01/09 08:02:12;;;;;;;0.00;0.00;;;5.90;99.90;;;;;;5022372;28;20072;-68
2022/01/09 08:04:38;;;;;;;0.00;0.00;;;5.10;99.90;;;;;;5022803;28;20151;-68
2022/01/09 08:07:04;;;;;;;0.00;0.00;;;5.10;99.90;;;;;;5039384;28;20655;-68
2022/01/09 08:09:30;;;;;;;0.00;0.00;;;5.00;99.90;;;;;;5041058;28;20701;-68
2022/01/09 08:11:55;;;;;;;0.00;0.00;;;5.60;99.90;;;;;;5039670;28;20162;-68
2022/01/09 08:14:21;;;;;;;0.00;0.00;;;5.00;99.90;;;;;;5042270;28;20056;-68
2022/01/09 08:16:47;;;;;;;0.00;0.00;;;5.60;99.90;;;;;;5059570;28;20044;-67
2022/01/09 08:19:13;;;;;;;0.00;0.00;;;5.00;99.90;;;;;;5060306;28;20041;-67
2022/01/09 08:21:38;;;;;;;0.00;0.00;;;5.00;99.90;;;;;;5059997;28;20045;-68
2022/01/09 08:24:04;;;;;;;0.00;0.00;;;5.00;99.90;;;;;;5059639;28;20051;-69
2022/01/09 08:26:30;;;;;;;0.00;0.00;;;4.80;99.90;;;;;;5059024;28;20101;-68
2022/01/09 08:28:56;;;;;;;0.00;0.00;;;5.20;99.90;;;;;;5041238;28;20049;-68
2022/01/09 08:31:21;;;;;;;0.00;0.00;;;5.20;99.90;;;;;;5059426;28;20387;-68
2022/01/09 08:33:47;;;;;;;0.00;0.00;;;5.10;99.90;;;;;;5040994;28;20095;-68
2022/01/09 08:36:14;;;;;;;0.00;0.00;;;4.90;99.90;;;;;;5041753;28;20056;-68
2022/01/09 08:38:40;;;;;;;0.00;0.00;;;4.90;99.90;;;;;;5042183;28;20072;-68
2022/01/09 08:41:05;;;;;;;0.00;0.00;;;4.90;99.90;;;;;;5059185;28;20080;-68
2022/01/09 08:43:31;;;;;;;0.00;0.00;;;4.90;99.90;;;;;;5042055;28;20210;-68
2022/01/09 08:45:57;;;;;;;0.00;0.00;;;4.90;99.90;;;;;;5041124;28;20282;-68
2022/01/09 08:48:23;;;;;;;0.00;0.00;;;4.90;99.90;;;;;;5056958;28;20116;-67
2022/01/09 08:50:49;;;;;;;0.00;0.00;;;4.90;99.90;;;;;;5068606;28;20514;-68
2022/01/09 08:53:15;;;;;;;0.00;0.00;;;4.90;99.90;;;;;;5068809;28;20047;-68
2022/01/09 08:55:41;;;;;;;0.00;0.00;;;4.90;99.90;;;;;;5033458;28;20040;-69
2022/01/09 08:58:07;;;;;;;0.00;0.00;;;5.50;99.90;;;;;;5066338;28;20041;-68
2022/01/09 09:00:32;;;;;;;0.00;0.00;;;4.90;99.90;;;;;;5041454;28;20051;-69
2022/01/09 09:02:58;;;;;;;0.00;0.00;;;4.90;99.90;;;;;;5040665;28;20038;-68
2022/01/09 09:05:24;;;;;;;0.00;0.00;;;4.90;99.90;;;;;;5059212;28;20121;-68
2022/01/09 09:07:50;;;;;;;0.00;0.00;;;4.90;99.90;;;;;;5041300;28;20150;-68
2022/01/09 09:10:15;;;;;;;0.00;0.00;;;4.90;99.90;;;;;;5041996;28;20059;-67
2022/01/09 09:12:41;;;;;;;0.00;0.00;;;4.90;99.90;;;;;;5039960;28;20135;-68
2022/01/09 09:15:07;;;;;;;0.00;0.00;;;4.90;99.90;;;;;;5059765;28;20486;-68
2022/01/09 09:17:34;;;;;;;0.10;0.10;;;4.90;99.90;;;;;;5060067;28;20101;-68
2022/01/09 09:19:59;;;;;;;0.00;0.00;;;5.00;99.90;;;;;;5059687;28;20053;-69
2022/01/09 09:22:25;;;;;;;0.00;0.00;;;5.00;99.90;;;;;;5059045;28;20514;-68
2022/01/09 09:24:51;;;;;;;0.00;0.00;;;5.00;99.90;;;;;;5059875;28;20538;-68
2022/01/09 09:27:19;;;;;;;0.00;0.00;;;5.00;99.90;;;;;;5057112;28;20771;-67
2022/01/09 09:29:45;;;;;;;0.00;0.00;;;5.10;99.90;;;;;;5029289;28;20056;-68
2022/01/09 09:32:10;;;;;;;0.00;0.00;;;5.00;99.90;;;;;;5039010;28;20053;-66
2022/01/09 09:34:38;;;;;;;0.00;0.00;;;5.00;99.90;;;;;;5021982;28;20059;-67
2022/01/09 09:37:04;;;;;;;0.00;0.00;;;5.00;99.90;;;;;;5039489;28;20085;-67
2022/01/09 09:39:30;;;;;;;0.00;0.00;;;5.40;99.90;;;;;;5022297;28;20089;-69
2022/01/09 09:41:55;;;;;;;0.00;0.00;;;4.90;99.90;;;;;;5020674;28;20071;-67
2022/01/09 09:44:21;;;;;;;0.00;0.00;;;5.10;99.90;;;;;;5021786;28;20052;-67
2022/01/09 09:46:49;;;;;;;0.00;0.00;;;4.90;99.90;;;;;;5021242;28;20098;-67
2022/01/09 09:49:15;;;;;;;0.00;0.00;;;4.90;99.90;;;;;;5021704;28;20400;-67
2022/01/09 09:51:42;;;;;;;0.00;0.00;;;5.10;99.90;;;;;;5038559;28;20088;-67
2022/01/09 09:54:07;;;;;;;0.00;0.00;;;4.90;99.90;;;;;;5039288;28;20033;-67
2022/01/09 09:56:33;;;;;;;0.00;0.00;;;4.90;99.90;;;;;;5038699;28;20111;-67
2022/01/09 09:59:00;;;;;;;0.00;0.00;;;5.00;99.90;;;;;;5020849;28;20095;-66
2022/01/09 10:01:31;;;;;;;0.00;0.00;;;5.10;99.90;;;;;;5039273;28;20045;-67
2022/01/09 10:03:59;;;;;;;0.00;0.00;;;5.10;99.90;;;;;;5021456;28;20474;-67
2022/01/09 10:06:43;;;;;;;0.00;0.00;;;6.20;99.90;;;;;;5021207;28;20509;-67
2022/01/09 10:09:27;;;;;;;0.00;0.00;;;6.20;99.90;;;;;;5039196;28;20068;-67
2022/01/09 10:12:01;;;;;;;0.00;0.00;;;5.40;99.90;;;;;;5038516;28;20076;-66
2022/01/09 10:14:32;;;;;;;0.00;0.00;;;5.20;99.90;;;;;;5023734;28;20626;-66
2022/01/09 10:17:05;;;;;;;0.00;0.00;;;5.30;99.90;;;;;;5025091;28;20071;-66
2022/01/09 10:19:46;;;;;;;0.00;0.00;;;5.30;99.90;;;;;;5024273;28;20037;-66
2022/01/09 10:22:26;;;;;;;0.00;0.00;;;5.40;99.90;;;;;;5024923;28;20044;-66
2022/01/09 10:24:53;;;;;;;0.00;0.00;;;5.50;99.90;;;;;;5024026;28;20056;-66
2022/01/09 10:27:30;;;;;;;0.00;0.00;;;5.60;99.90;;;;;;5042386;28;20052;-66
2022/01/09 10:29:57;;;;;;;0.00;0.00;;;6.30;99.90;;;;;;5024458;28;20045;-66
2022/01/09 10:32:27;;;;;;;0.00;0.00;;;5.60;99.90;;;;;;5024355;28;20041;-66
2022/01/09 10:35:16;;;;;;;0.00;0.00;;;5.60;99.90;;;;;;5024336;28;20074;-66
2022/01/09 10:37:45;;;;;;;0.00;0.00;;;5.60;99.90;;;;;;5024220;28;20090;-66
2022/01/09 10:40:21;;;;;;;0.00;0.00;;;5.50;99.90;;;;;;5042074;28;20064;-66
2022/01/09 10:43:18;;;;;;;0.00;0.00;;;5.50;99.90;;;;;;5041944;28;20064;-66
2022/01/09 10:45:50;;;;;;;0.00;0.00;;;5.50;99.90;;;;;;5041978;28;20052;-66
2022/01/09 10:48:21;;;;;;;0.00;0.00;;;5.50;99.90;;;;;;5042101;28;20049;-65
2022/01/09 10:50:48;;;;;;;0.60;0.57;;;5.50;99.90;;;;;;5024435;28;20174;-65
2022/01/09 10:53:22;;;;;;;0.00;0.00;;;5.90;99.90;;;;;;5044040;28;20114;-66
2022/01/09 10:56:05;;;;;;;0.00;0.00;;;5.60;99.90;;;;;;5043162;28;20056;-66
2022/01/09 10:58:34;;;;;;;0.00;0.00;;;5.70;99.90;;;;;;5044010;28;20057;-66
2022/01/09 11:01:21;;;;;;;0.00;0.00;;;5.80;99.90;;;;;;5044459;28;20040;-65
2022/01/09 11:03:58;;;;;;;0.00;0.00;;;5.90;99.90;;;;;;5023559;28;20045;-70
2022/01/09 11:06:26;;;;;;;0.00;0.00;;;6.00;99.90;;;;;;5042167;28;20601;-66
2022/01/09 11:08:54;;;;;;;0.00;0.00;;;6.00;99.90;;;;;;5041365;28;20482;-66
2022/01/09 11:11:38;;;;;;;0.00;0.00;;;6.20;99.90;;;;;;5021957;28;20474;-66
2022/01/09 11:14:07;;;;;;;0.65;0.55;;;6.20;99.90;;;;;;5023747;28;20051;-66
2022/01/09 11:16:41;;;;;;;0.00;0.00;;;6.20;99.90;;;;;;5024249;28;20056;-66
2022/01/09 11:19:15;;;;;;;0.00;0.00;;;6.10;99.90;;;;;;5041715;28;20098;-66
2022/01/09 11:21:44;;;;;;;0.00;0.00;;;6.10;99.90;;;;;;5041574;28;20044;-67
2022/01/09 11:24:21;;;;;;;0.00;0.00;;;6.00;99.90;;;;;;5022812;28;20059;-67
2022/01/09 11:26:50;;;;;;;0.00;0.00;;;6.10;99.90;;;;;;5021780;28;20041;-66
2022/01/09 11:29:23;;;;;;;0.00;0.00;;;6.30;99.90;;;;;;5051875;28;20084;-66
2022/01/09 11:32:15;;;;;;;0.00;0.00;;;6.50;99.90;;;;;;5028394;28;20084;-66
2022/01/09 11:34:59;;;;;;;0.00;0.00;;;6.50;99.90;;;;;;5033508;28;20056;-66
2022/01/09 11:38:01;;;;;;;0.00;0.00;;;6.60;99.90;;;;;;5059879;28;20057;-67
2022/01/09 11:40:29;;;;;;;0.00;0.00;;;6.40;99.90;;;;;;5024248;28;20052;-66
2022/01/09 11:43:14;;;;;;;0.00;0.00;;;6.40;99.90;;;;;;5060787;28;20486;-66
2022/01/09 11:46:03;;;;;;;0.00;0.00;;;6.60;99.90;;;;;;5061125;28;20036;-66
2022/01/09 11:48:52;;;;;;;0.00;0.00;;;6.70;99.90;;;;;;5043172;28;20483;-66
2022/01/09 11:51:24;;;;;;;0.00;0.00;;;6.80;99.90;;;;;;5026971;28;20118;-67
2022/01/09 11:54:03;;;;;;;0.00;0.00;;;6.90;99.90;;;;;;5060972;28;20119;-67
2022/01/09 11:56:41;;;;;;;0.00;0.00;;;6.80;99.90;;;;;;5041940;28;20056;-66
2022/01/09 11:59:16;;;;;;;0.00;0.00;;;7.00;99.90;;;;;;5042638;28;20055;-66
2022/01/09 12:01:42;;;;;;;0.00;0.00;;;6.80;99.90;;;;;;5060800;28;20079;-67
2022/01/09 12:04:31;;;;;;;0.00;0.00;;;7.20;99.90;;;;;;5060744;28;20376;-65
2022/01/09 12:06:57;;;;;;;0.00;0.00;;;6.90;99.90;;;;;;5060199;28;20353;-66
2022/01/09 12:09:51;;;;;;;0.00;0.00;;;6.70;99.90;;;;;;5039092;28;20064;-66
2022/01/09 12:12:17;;;;;;;0.00;0.00;;;6.70;99.90;;;;;;5038414;28;20091;-66
2022/01/09 12:14:55;;;;;;;0.00;0.00;;;6.70;99.90;;;;;;5040676;28;20041;-66
2022/01/09 12:17:21;;;;;;;0.00;0.00;;;6.60;99.90;;;;;;5038647;28;20055;-66
2022/01/09 12:20:01;;;;;;;0.10;0.10;;;6.50;99.90;;;;;;5038890;28;20127;-67
2022/01/09 12:22:43;;;;;;;0.00;0.00;;;6.60;99.90;;;;;;5040630;28;20102;-66
2022/01/09 12:25:29;;;;;;;0.00;0.00;;;6.40;99.90;;;;;;5038497;28;20084;-68
2022/01/09 12:28:15;;;;;;;0.00;0.00;;;5.80;99.90;;;;;;5019633;28;20496;-68
2022/01/09 12:30:43;;;;;;;0.55;0.25;;;6.10;99.90;;;;;;5028112;28;20065;-67
2022/01/09 12:33:34;;;;;;;0.00;0.00;;;6.30;99.90;;;;;;5020453;28;20041;-68
2022/01/09 12:36:18;;;;;;;0.00;0.00;;;6.10;99.90;;;;;;5012305;28;20104;-67
2022/01/09 12:38:55;;;;;;;0.00;0.00;;;6.10;99.90;;;;;;5018464;28;20095;-66
2022/01/09 12:41:33;;;;;;;0.00;0.00;;;6.20;99.90;;;;;;5018002;28;20049;-68
2022/01/09 12:44:00;;;;;;;0.00;0.00;;;6.30;99.90;;;;;;5020587;28;20144;-67
2022/01/09 12:46:28;;;;;;;0.00;0.00;;;6.40;99.90;;;;;;5018109;28;20046;-69
2022/01/09 12:49:04;;;;;;;0.00;0.00;;;6.50;99.90;;;;;;5019076;28;20377;-68
2022/01/09 12:51:30;;;;;;;0.00;0.00;;;6.40;99.90;;;;;;5020448;28;20060;-68
2022/01/09 12:53:58;;;;;;;0.00;0.00;;;6.50;99.90;;;;;;5019601;28;20519;-67
2022/01/09 12:56:29;;;;;;;0.00;0.00;;;6.60;99.90;;;;;;5019241;28;20050;-67
2022/01/09 12:59:12;;;;;;;0.00;0.00;;;6.50;99.90;;;;;;5002024;28;20059;-68
2022/01/09 13:01:41;;;;;;;0.00;0.00;;;6.50;99.90;;;;;;5019023;28;20045;-67
2022/01/09 13:04:17;;;;;;;0.00;0.00;;;7.10;99.90;;;;;;5018977;28;20063;-67
2022/01/09 13:06:43;;;;;;;0.00;0.00;;;6.70;99.90;;;;;;5018485;28;20062;-68
2022/01/09 13:09:17;;;;;;;0.00;0.00;;;6.80;99.90;;;;;;5034940;28;20041;-68